sensor_id;sensor_type;location;lat;lon;timestamp;temperature;humidity
3912;DHT22;1971;51.778;10.330;2022-07-18T00:01:45;10.40;1.00
3912;DHT22;1971;51.778;10.330;2022-07-18T00:04:30;10.40;1.00
3912;DHT22;1971;51.778;10.330;2022-07-18T00:07:06;10.40;1.00
3912;DHT22;1971;51.778;10.330;2022-07-18T00:09:44;10.40;1.00
3912;DHT22;1971;51.778;10.330;2022-07-18T00:12:26;10.30;1.00
3912;DHT22;1971;51.778;10.330;2022-07-18T00:15:03;10.20;1.00
3912;DHT22;1971;51.778;10.330;2022-07-18T00:17:45;10.20;1.00
3912;DHT22;1971;51.778;10.330;2022-07-18T00:20:23;10.20;1.00
3912;DHT22;1971;51.778;10.330;2022-07-18T00:23:06;10.20;1.00
3912;DHT22;1971;51.778;10.330;2022-07-18T00:25:42;10.10;1.00
3912;DHT22;1971;51.778;10.330;2022-07-18T00:28:24;10.20;1.00
3912;DHT22;1971;51.778;10.330;2022-07-18T00:31:00;10.40;1.00
3912;DHT22;1971;51.778;10.330;2022-07-18T00:33:42;10.30;1.00
3912;DHT22;1971;51.778;10.330;2022-07-18T00:36:20;10.00;1.00
3912;DHT22;1971;51.778;10.330;2022-07-18T00:39:03;10.30;1.00
3912;DHT22;1971;51.778;10.330;2022-07-18T00:41:39;9.80;1.00
3912;DHT22;1971;51.778;10.330;2022-07-18T00:44:23;9.70;1.00
3912;DHT22;1971;51.778;10.330;2022-07-18T00:47:00;9.70;1.00
3912;DHT22;1971;51.778;10.330;2022-07-18T00:49:43;9.60;1.00
3912;DHT22;1971;51.778;10.330;2022-07-18T00:52:22;9.60;1.00
3912;DHT22;1971;51.778;10.330;2022-07-18T00:54:59;9.50;1.00
3912;DHT22;1971;51.778;10.330;2022-07-18T00:57:42;9.60;1.00
3912;DHT22;1971;51.778;10.330;2022-07-18T01:00:19;9.20;1.00
3912;DHT22;1971;51.778;10.330;2022-07-18T01:03:08;9.20;1.00
3912;DHT22;1971;51.778;10.330;2022-07-18T01:05:45;9.40;1.00
3912;DHT22;1971;51.778;10.330;2022-07-18T01:08:29;9.40;1.00
3912;DHT22;1971;51.778;10.330;2022-07-18T01:11:06;9.50;1.00
3912;DHT22;1971;51.778;10.330;2022-07-18T01:13:48;9.40;1.00
3912;DHT22;1971;51.778;10.330;2022-07-18T01:16:25;9.40;1.00
3912;DHT22;1971;51.778;10.330;2022-07-18T01:19:07;9.60;1.00
3912;DHT22;1971;51.778;10.330;2022-07-18T01:21:45;9.60;1.00
3912;DHT22;1971;51.778;10.330;2022-07-18T01:24:28;9.40;1.00
3912;DHT22;1971;51.778;10.330;2022-07-18T01:27:05;9.30;1.00
3912;DHT22;1971;51.778;10.330;2022-07-18T01:29:49;9.10;1.00
3912;DHT22;1971;51.778;10.330;2022-07-18T01:32:26;9.10;1.00
3912;DHT22;1971;51.778;10.330;2022-07-18T01:35:09;9.10;1.00
3912;DHT22;1971;51.778;10.330;2022-07-18T01:37:49;9.10;1.00
3912;DHT22;1971;51.778;10.330;2022-07-18T01:40:27;9.30;1.00
3912;DHT22;1971;51.778;10.330;2022-07-18T01:43:09;9.20;1.00
3912;DHT22;1971;51.778;10.330;2022-07-18T01:45:45;8.90;1.00
3912;DHT22;1971;51.778;10.330;2022-07-18T01:48:27;9.00;1.00
3912;DHT22;1971;51.778;10.330;2022-07-18T01:51:05;9.30;1.00
3912;DHT22;1971;51.778;10.330;2022-07-18T01:53:57;9.30;1.00
3912;DHT22;1971;51.778;10.330;2022-07-18T01:56:35;9.40;1.00
3912;DHT22;1971;51.778;10.330;2022-07-18T01:59:18;9.10;1.00
3912;DHT22;1971;51.778;10.330;2022-07-18T02:01:54;9.10;1.00
3912;DHT22;1971;51.778;10.330;2022-07-18T02:04:36;9.10;1.00
3912;DHT22;1971;51.778;10.330;2022-07-18T02:07:25;9.00;1.00
3912;DHT22;1971;51.778;10.330;2022-07-18T02:10:12;9.00;1.00
3912;DHT22;1971;51.778;10.330;2022-07-18T02:12:50;9.00;1.00
3912;DHT22;1971;51.778;10.330;2022-07-18T02:15:26;9.10;1.00
3912;DHT22;1971;51.778;10.330;2022-07-18T02:18:08;9.20;1.00
3912;DHT22;1971;51.778;10.330;2022-07-18T02:20:44;9.40;1.00
3912;DHT22;1971;51.778;10.330;2022-07-18T02:23:26;9.30;1.00
3912;DHT22;1971;51.778;10.330;2022-07-18T02:26:05;9.20;1.00
3912;DHT22;1971;51.778;10.330;2022-07-18T02:28:47;9.10;1.00
3912;DHT22;1971;51.778;10.330;2022-07-18T02:31:23;9.20;1.00
3912;DHT22;1971;51.778;10.330;2022-07-18T02:34:05;9.20;1.00
3912;DHT22;1971;51.778;10.330;2022-07-18T02:36:44;9.50;1.00
3912;DHT22;1971;51.778;10.330;2022-07-18T02:39:28;9.20;1.00
3912;DHT22;1971;51.778;10.330;2022-07-18T02:42:08;9.00;1.00
3912;DHT22;1971;51.778;10.330;2022-07-18T02:44:50;8.70;1.00
3912;DHT22;1971;51.778;10.330;2022-07-18T02:47:33;8.60;1.00
3912;DHT22;1971;51.778;10.330;2022-07-18T02:50:11;8.50;1.00
3912;DHT22;1971;51.778;10.330;2022-07-18T02:52:53;8.70;1.00
3912;DHT22;1971;51.778;10.330;2022-07-18T02:55:30;8.70;1.00
3912;DHT22;1971;51.778;10.330;2022-07-18T02:58:14;8.80;1.00
3912;DHT22;1971;51.778;10.330;2022-07-18T03:00:51;8.90;1.00
3912;DHT22;1971;51.778;10.330;2022-07-18T03:03:33;8.90;1.00
3912;DHT22;1971;51.778;10.330;2022-07-18T03:06:09;8.90;1.00
3912;DHT22;1971;51.778;10.330;2022-07-18T03:08:51;8.60;1.00
3912;DHT22;1971;51.778;10.330;2022-07-18T03:11:27;8.70;1.00
3912;DHT22;1971;51.778;10.330;2022-07-18T03:14:12;8.60;1.00
3912;DHT22;1971;51.778;10.330;2022-07-18T03:16:48;8.50;1.00
3912;DHT22;1971;51.778;10.330;2022-07-18T03:19:30;8.50;1.00
3912;DHT22;1971;51.778;10.330;2022-07-18T03:22:07;8.60;1.00
3912;DHT22;1971;51.778;10.330;2022-07-18T03:24:49;8.60;1.00
3912;DHT22;1971;51.778;10.330;2022-07-18T03:27:25;8.60;1.00
3912;DHT22;1971;51.778;10.330;2022-07-18T03:30:11;8.60;1.00
3912;DHT22;1971;51.778;10.330;2022-07-18T03:32:47;8.60;1.00
3912;DHT22;1971;51.778;10.330;2022-07-18T03:35:29;8.80;1.00
3912;DHT22;1971;51.778;10.330;2022-07-18T03:38:05;9.00;1.00
3912;DHT22;1971;51.778;10.330;2022-07-18T03:40:47;9.10;1.00
3912;DHT22;1971;51.778;10.330;2022-07-18T03:43:24;9.10;1.00
3912;DHT22;1971;51.778;10.330;2022-07-18T03:46:03;9.20;1.00
3912;DHT22;1971;51.778;10.330;2022-07-18T03:48:45;9.00;1.00
3912;DHT22;1971;51.778;10.330;2022-07-18T03:51:21;8.90;1.00
3912;DHT22;1971;51.778;10.330;2022-07-18T03:54:03;8.80;1.00
3912;DHT22;1971;51.778;10.330;2022-07-18T03:56:43;9.00;1.00
3912;DHT22;1971;51.778;10.330;2022-07-18T03:59:25;9.30;1.00
3912;DHT22;1971;51.778;10.330;2022-07-18T04:02:04;9.10;1.00
3912;DHT22;1971;51.778;10.330;2022-07-18T04:04:46;9.00;1.00
3912;DHT22;1971;51.778;10.330;2022-07-18T04:07:22;9.10;1.00
3912;DHT22;1971;51.778;10.330;2022-07-18T04:10:06;9.00;1.00
3912;DHT22;1971;51.778;10.330;2022-07-18T04:12:47;9.50;1.00
3912;DHT22;1971;51.778;10.330;2022-07-18T04:15:30;9.50;1.00
3912;DHT22;1971;51.778;10.330;2022-07-18T04:18:09;9.60;1.00
3912;DHT22;1971;51.778;10.330;2022-07-18T04:20:51;9.90;1.00
3912;DHT22;1971;51.778;10.330;2022-07-18T04:23:27;10.20;1.00
3912;DHT22;1971;51.778;10.330;2022-07-18T04:26:09;10.20;1.00
3912;DHT22;1971;51.778;10.330;2022-07-18T04:28:46;10.30;1.00
3912;DHT22;1971;51.778;10.330;2022-07-18T04:31:22;10.50;1.00
3912;DHT22;1971;51.778;10.330;2022-07-18T04:34:07;11.00;1.00
3912;DHT22;1971;51.778;10.330;2022-07-18T04:36:43;11.00;1.00
3912;DHT22;1971;51.778;10.330;2022-07-18T04:39:25;11.20;1.00
3912;DHT22;1971;51.778;10.330;2022-07-18T04:42:01;11.40;1.00
3912;DHT22;1971;51.778;10.330;2022-07-18T04:44:43;11.70;1.00
3912;DHT22;1971;51.778;10.330;2022-07-18T04:47:19;11.90;1.00
3912;DHT22;1971;51.778;10.330;2022-07-18T04:50:04;12.20;1.00
3912;DHT22;1971;51.778;10.330;2022-07-18T04:52:43;12.40;1.00
3912;DHT22;1971;51.778;10.330;2022-07-18T04:55:26;12.60;1.00
3912;DHT22;1971;51.778;10.330;2022-07-18T04:58:02;12.90;1.00
3912;DHT22;1971;51.778;10.330;2022-07-18T05:00:44;13.20;1.00
3912;DHT22;1971;51.778;10.330;2022-07-18T05:03:20;13.60;1.00
3912;DHT22;1971;51.778;10.330;2022-07-18T05:06:05;14.00;1.00
3912;DHT22;1971;51.778;10.330;2022-07-18T05:08:41;14.30;1.00
3912;DHT22;1971;51.778;10.330;2022-07-18T05:11:23;14.60;1.00
3912;DHT22;1971;51.778;10.330;2022-07-18T05:14:00;14.70;1.00
3912;DHT22;1971;51.778;10.330;2022-07-18T05:16:36;14.80;1.00
3912;DHT22;1971;51.778;10.330;2022-07-18T05:19:18;14.80;1.00
3912;DHT22;1971;51.778;10.330;2022-07-18T05:21:57;15.00;1.00
3912;DHT22;1971;51.778;10.330;2022-07-18T05:24:39;15.20;1.00
3912;DHT22;1971;51.778;10.330;2022-07-18T05:27:15;15.50;1.00
3912;DHT22;1971;51.778;10.330;2022-07-18T05:29:57;15.60;1.00
3912;DHT22;1971;51.778;10.330;2022-07-18T05:32:33;15.80;1.00
3912;DHT22;1971;51.778;10.330;2022-07-18T05:35:16;16.00;1.00
3912;DHT22;1971;51.778;10.330;2022-07-18T05:37:55;16.30;1.00
3912;DHT22;1971;51.778;10.330;2022-07-18T05:40:37;16.40;1.00
3912;DHT22;1971;51.778;10.330;2022-07-18T05:43:13;16.70;1.00
3912;DHT22;1971;51.778;10.330;2022-07-18T05:45:55;16.80;1.00
3912;DHT22;1971;51.778;10.330;2022-07-18T05:48:31;17.10;1.00
3912;DHT22;1971;51.778;10.330;2022-07-18T05:51:13;17.60;1.00
3912;DHT22;1971;51.778;10.330;2022-07-18T05:53:52;17.80;1.00
3912;DHT22;1971;51.778;10.330;2022-07-18T05:56:28;18.00;1.00
3912;DHT22;1971;51.778;10.330;2022-07-18T05:59:10;18.20;1.00
3912;DHT22;1971;51.778;10.330;2022-07-18T06:01:48;18.30;1.00
3912;DHT22;1971;51.778;10.330;2022-07-18T06:04:30;18.60;1.00
3912;DHT22;1971;51.778;10.330;2022-07-18T06:07:06;18.80;99.90
3912;DHT22;1971;51.778;10.330;2022-07-18T06:09:51;18.90;99.90
3912;DHT22;1971;51.778;10.330;2022-07-18T06:12:29;19.10;99.90
3912;DHT22;1971;51.778;10.330;2022-07-18T06:15:13;19.50;99.90
3912;DHT22;1971;51.778;10.330;2022-07-18T06:17:50;19.60;99.90
3912;DHT22;1971;51.778;10.330;2022-07-18T06:20:32;19.90;99.90
3912;DHT22;1971;51.778;10.330;2022-07-18T06:23:08;19.80;99.90
3912;DHT22;1971;51.778;10.330;2022-07-18T06:25:53;19.70;99.90
3912;DHT22;1971;51.778;10.330;2022-07-18T06:28:29;19.60;99.90
3912;DHT22;1971;51.778;10.330;2022-07-18T06:31:11;19.80;99.90
3912;DHT22;1971;51.778;10.330;2022-07-18T06:33:50;19.90;99.90
3912;DHT22;1971;51.778;10.330;2022-07-18T06:36:33;20.10;99.90
3912;DHT22;1971;51.778;10.330;2022-07-18T06:39:09;20.30;99.90
3912;DHT22;1971;51.778;10.330;2022-07-18T06:41:56;20.30;99.90
3912;DHT22;1971;51.778;10.330;2022-07-18T06:44:32;19.80;99.90
3912;DHT22;1971;51.778;10.330;2022-07-18T06:47:08;19.70;99.90
3912;DHT22;1971;51.778;10.330;2022-07-18T06:49:50;19.90;99.90
3912;DHT22;1971;51.778;10.330;2022-07-18T06:52:26;19.90;99.90
3912;DHT22;1971;51.778;10.330;2022-07-18T06:55:10;20.10;99.90
3912;DHT22;1971;51.778;10.330;2022-07-18T06:57:50;20.20;99.90
3912;DHT22;1971;51.778;10.330;2022-07-18T07:00:32;20.40;99.90
3912;DHT22;1971;51.778;10.330;2022-07-18T07:03:08;20.40;99.90
3912;DHT22;1971;51.778;10.330;2022-07-18T07:05:50;20.60;99.90
3912;DHT22;1971;51.778;10.330;2022-07-18T07:08:26;20.50;99.90
3912;DHT22;1971;51.778;10.330;2022-07-18T07:11:08;20.50;99.90
3912;DHT22;1971;51.778;10.330;2022-07-18T07:13:47;20.40;99.90
3912;DHT22;1971;51.778;10.330;2022-07-18T07:16:29;20.50;99.90
3912;DHT22;1971;51.778;10.330;2022-07-18T07:19:05;20.70;99.90
3912;DHT22;1971;51.778;10.330;2022-07-18T07:21:47;21.00;99.90
3912;DHT22;1971;51.778;10.330;2022-07-18T07:24:23;21.10;99.90
3912;DHT22;1971;51.778;10.330;2022-07-18T07:27:05;21.20;99.90
3912;DHT22;1971;51.778;10.330;2022-07-18T07:29:44;21.30;99.90
3912;DHT22;1971;51.778;10.330;2022-07-18T07:32:20;21.50;99.90
3912;DHT22;1971;51.778;10.330;2022-07-18T07:35:03;21.20;99.90
3912;DHT22;1971;51.778;10.330;2022-07-18T07:37:40;21.60;99.90
3912;DHT22;1971;51.778;10.330;2022-07-18T07:40:24;21.70;99.90
3912;DHT22;1971;51.778;10.330;2022-07-18T07:43:08;21.80;99.90
3912;DHT22;1971;51.778;10.330;2022-07-18T07:45:53;22.10;99.90
3912;DHT22;1971;51.778;10.330;2022-07-18T07:48:29;22.30;99.90
3912;DHT22;1971;51.778;10.330;2022-07-18T07:51:11;22.00;99.90
3912;DHT22;1971;51.778;10.330;2022-07-18T07:53:48;22.10;99.90
3912;DHT22;1971;51.778;10.330;2022-07-18T07:56:30;22.00;99.90
3912;DHT22;1971;51.778;10.330;2022-07-18T07:59:06;22.00;99.90
3912;DHT22;1971;51.778;10.330;2022-07-18T08:01:51;21.90;99.90
3912;DHT22;1971;51.778;10.330;2022-07-18T08:04:27;21.80;99.90
3912;DHT22;1971;51.778;10.330;2022-07-18T08:07:09;21.80;99.90
3912;DHT22;1971;51.778;10.330;2022-07-18T08:09:46;22.00;99.90
3912;DHT22;1971;51.778;10.330;2022-07-18T08:12:22;22.00;99.90
3912;DHT22;1971;51.778;10.330;2022-07-18T08:15:05;22.20;99.90
3912;DHT22;1971;51.778;10.330;2022-07-18T08:17:45;22.60;99.90
3912;DHT22;1971;51.778;10.330;2022-07-18T08:20:28;22.70;99.90
3912;DHT22;1971;51.778;10.330;2022-07-18T08:23:08;22.30;99.90
3912;DHT22;1971;51.778;10.330;2022-07-18T08:25:51;22.10;99.90
3912;DHT22;1971;51.778;10.330;2022-07-18T08:28:27;22.30;99.90
3912;DHT22;1971;51.778;10.330;2022-07-18T08:31:10;22.70;99.90
3912;DHT22;1971;51.778;10.330;2022-07-18T08:33:49;22.40;99.90
3912;DHT22;1971;51.778;10.330;2022-07-18T08:36:31;22.60;99.90
3912;DHT22;1971;51.778;10.330;2022-07-18T08:39:12;22.60;99.90
3912;DHT22;1971;51.778;10.330;2022-07-18T08:41:54;22.60;99.90
3912;DHT22;1971;51.778;10.330;2022-07-18T08:44:36;23.00;99.90
3912;DHT22;1971;51.778;10.330;2022-07-18T08:47:19;22.70;99.90
3912;DHT22;1971;51.778;10.330;2022-07-18T08:50:06;22.70;99.90
3912;DHT22;1971;51.778;10.330;2022-07-18T08:52:44;23.00;99.90
3912;DHT22;1971;51.778;10.330;2022-07-18T08:55:27;23.40;99.90
3912;DHT22;1971;51.778;10.330;2022-07-18T08:58:03;23.00;99.90
3912;DHT22;1971;51.778;10.330;2022-07-18T09:00:45;23.30;99.90
3912;DHT22;1971;51.778;10.330;2022-07-18T09:03:22;23.10;99.90
3912;DHT22;1971;51.778;10.330;2022-07-18T09:06:09;23.00;99.90
3912;DHT22;1971;51.778;10.330;2022-07-18T09:08:58;23.00;99.90
3912;DHT22;1971;51.778;10.330;2022-07-18T09:11:51;23.00;99.90
3912;DHT22;1971;51.778;10.330;2022-07-18T09:14:35;22.90;99.90
3912;DHT22;1971;51.778;10.330;2022-07-18T09:17:12;23.00;99.90
3912;DHT22;1971;51.778;10.330;2022-07-18T09:20:00;23.30;99.90
3912;DHT22;1971;51.778;10.330;2022-07-18T09:22:40;23.10;99.90
3912;DHT22;1971;51.778;10.330;2022-07-18T09:25:23;23.00;99.90
3912;DHT22;1971;51.778;10.330;2022-07-18T09:27:59;23.30;99.90
3912;DHT22;1971;51.778;10.330;2022-07-18T09:30:41;23.80;99.90
3912;DHT22;1971;51.778;10.330;2022-07-18T09:33:17;24.40;99.90
3912;DHT22;1971;51.778;10.330;2022-07-18T09:36:00;24.60;99.90
3912;DHT22;1971;51.778;10.330;2022-07-18T09:38:39;24.20;99.90
3912;DHT22;1971;51.778;10.330;2022-07-18T09:41:23;24.10;99.90
3912;DHT22;1971;51.778;10.330;2022-07-18T09:44:13;24.30;99.90
3912;DHT22;1971;51.778;10.330;2022-07-18T09:46:59;24.10;99.90
3912;DHT22;1971;51.778;10.330;2022-07-18T09:49:35;24.50;99.90
3912;DHT22;1971;51.778;10.330;2022-07-18T09:52:19;24.30;99.90
3912;DHT22;1971;51.778;10.330;2022-07-18T09:55:04;24.40;99.90
3912;DHT22;1971;51.778;10.330;2022-07-18T09:57:56;24.40;99.90
3912;DHT22;1971;51.778;10.330;2022-07-18T10:00:37;24.50;99.90
3912;DHT22;1971;51.778;10.330;2022-07-18T10:03:15;24.70;99.90
3912;DHT22;1971;51.778;10.330;2022-07-18T10:05:58;25.10;99.90
3912;DHT22;1971;51.778;10.330;2022-07-18T10:08:36;25.40;99.90
3912;DHT22;1971;51.778;10.330;2022-07-18T10:11:25;25.40;99.90
3912;DHT22;1971;51.778;10.330;2022-07-18T10:14:07;25.40;99.90
3912;DHT22;1971;51.778;10.330;2022-07-18T10:16:45;25.10;99.90
3912;DHT22;1971;51.778;10.330;2022-07-18T10:19:21;24.80;99.90
3912;DHT22;1971;51.778;10.330;2022-07-18T10:22:04;25.00;99.90
3912;DHT22;1971;51.778;10.330;2022-07-18T10:24:42;24.90;99.90
3912;DHT22;1971;51.778;10.330;2022-07-18T10:27:27;25.00;99.90
3912;DHT22;1971;51.778;10.330;2022-07-18T10:30:08;24.70;99.90
3912;DHT22;1971;51.778;10.330;2022-07-18T10:32:45;24.60;99.90
3912;DHT22;1971;51.778;10.330;2022-07-18T10:35:58;24.90;99.90
3912;DHT22;1971;51.778;10.330;2022-07-18T10:39:05;24.90;99.90
3912;DHT22;1971;51.778;10.330;2022-07-18T10:42:12;25.40;99.90
3912;DHT22;1971;51.778;10.330;2022-07-18T10:44:51;25.70;99.90
3912;DHT22;1971;51.778;10.330;2022-07-18T10:47:28;26.00;99.90
3912;DHT22;1971;51.778;10.330;2022-07-18T10:50:10;25.90;99.90
3912;DHT22;1971;51.778;10.330;2022-07-18T10:52:57;26.20;99.90
3912;DHT22;1971;51.778;10.330;2022-07-18T10:55:33;26.10;99.90
3912;DHT22;1971;51.778;10.330;2022-07-18T10:58:16;26.10;99.90
3912;DHT22;1971;51.778;10.330;2022-07-18T11:01:02;26.00;99.90
3912;DHT22;1971;51.778;10.330;2022-07-18T11:03:41;25.60;99.90
3912;DHT22;1971;51.778;10.330;2022-07-18T11:06:23;25.90;99.90
3912;DHT22;1971;51.778;10.330;2022-07-18T11:09:29;26.40;99.90
3912;DHT22;1971;51.778;10.330;2022-07-18T11:12:21;26.00;99.90
3912;DHT22;1971;51.778;10.330;2022-07-18T11:15:00;26.20;99.90
3912;DHT22;1971;51.778;10.330;2022-07-18T11:18:03;26.60;99.90
3912;DHT22;1971;51.778;10.330;2022-07-18T11:20:45;27.00;99.90
3912;DHT22;1971;51.778;10.330;2022-07-18T11:23:23;27.40;99.90
3912;DHT22;1971;51.778;10.330;2022-07-18T11:26:05;27.30;99.90
3912;DHT22;1971;51.778;10.330;2022-07-18T11:28:42;26.90;99.90
3912;DHT22;1971;51.778;10.330;2022-07-18T11:31:25;27.00;99.90
3912;DHT22;1971;51.778;10.330;2022-07-18T11:34:04;27.00;99.90
3912;DHT22;1971;51.778;10.330;2022-07-18T11:36:47;27.00;99.90
3912;DHT22;1971;51.778;10.330;2022-07-18T11:39:28;27.00;99.90
3912;DHT22;1971;51.778;10.330;2022-07-18T11:42:11;27.30;99.90
3912;DHT22;1971;51.778;10.330;2022-07-18T11:44:57;26.80;99.90
3912;DHT22;1971;51.778;10.330;2022-07-18T11:47:28;26.60;99.90
3912;DHT22;1971;51.778;10.330;2022-07-18T11:50:13;26.50;99.90
3912;DHT22;1971;51.778;10.330;2022-07-18T11:52:55;26.50;99.90
3912;DHT22;1971;51.778;10.330;2022-07-18T11:55:38;27.00;99.90
3912;DHT22;1971;51.778;10.330;2022-07-18T11:58:16;27.10;99.90
3912;DHT22;1971;51.778;10.330;2022-07-18T12:00:59;27.20;99.90
3912;DHT22;1971;51.778;10.330;2022-07-18T12:03:36;27.10;99.90
3912;DHT22;1971;51.778;10.330;2022-07-18T12:06:22;27.10;99.90
3912;DHT22;1971;51.778;10.330;2022-07-18T12:09:00;26.50;99.90
3912;DHT22;1971;51.778;10.330;2022-07-18T12:11:42;26.90;99.90
3912;DHT22;1971;51.778;10.330;2022-07-18T12:14:33;26.70;99.90
3912;DHT22;1971;51.778;10.330;2022-07-18T12:17:16;26.90;99.90
3912;DHT22;1971;51.778;10.330;2022-07-18T12:19:52;26.40;99.90
3912;DHT22;1971;51.778;10.330;2022-07-18T12:23:08;26.60;99.90
3912;DHT22;1971;51.778;10.330;2022-07-18T12:25:58;27.10;99.90
3912;DHT22;1971;51.778;10.330;2022-07-18T12:28:34;27.30;99.90
3912;DHT22;1971;51.778;10.330;2022-07-18T12:31:38;27.50;99.90
3912;DHT22;1971;51.778;10.330;2022-07-18T12:37:03;27.20;99.90
3912;DHT22;1971;51.778;10.330;2022-07-18T12:39:55;27.10;99.90
3912;DHT22;1971;51.778;10.330;2022-07-18T12:42:46;27.10;99.90
3912;DHT22;1971;51.778;10.330;2022-07-18T12:45:27;27.20;99.90
3912;DHT22;1971;51.778;10.330;2022-07-18T12:48:06;27.50;99.90
3912;DHT22;1971;51.778;10.330;2022-07-18T12:50:58;27.80;99.90
3912;DHT22;1971;51.778;10.330;2022-07-18T12:53:42;27.80;99.90
3912;DHT22;1971;51.778;10.330;2022-07-18T12:56:21;27.40;99.90
3912;DHT22;1971;51.778;10.330;2022-07-18T12:58:57;27.40;99.90
3912;DHT22;1971;51.778;10.330;2022-07-18T13:01:39;27.10;99.90
3912;DHT22;1971;51.778;10.330;2022-07-18T13:04:16;27.20;99.90
3912;DHT22;1971;51.778;10.330;2022-07-18T13:06:58;27.60;99.90
3912;DHT22;1971;51.778;10.330;2022-07-18T13:09:34;27.60;99.90
3912;DHT22;1971;51.778;10.330;2022-07-18T13:12:13;27.40;99.90
3912;DHT22;1971;51.778;10.330;2022-07-18T13:14:55;27.30;99.90
3912;DHT22;1971;51.778;10.330;2022-07-18T13:17:31;27.60;99.90
3912;DHT22;1971;51.778;10.330;2022-07-18T13:20:13;27.30;99.90
3912;DHT22;1971;51.778;10.330;2022-07-18T13:22:49;27.10;99.90
3912;DHT22;1971;51.778;10.330;2022-07-18T13:25:31;27.30;99.90
3912;DHT22;1971;51.778;10.330;2022-07-18T13:28:11;27.40;99.90
3912;DHT22;1971;51.778;10.330;2022-07-18T13:30:53;27.90;99.90
3912;DHT22;1971;51.778;10.330;2022-07-18T13:33:29;28.30;99.90
3912;DHT22;1971;51.778;10.330;2022-07-18T13:36:12;28.60;99.90
3912;DHT22;1971;51.778;10.330;2022-07-18T13:38:48;28.80;99.90
3912;DHT22;1971;51.778;10.330;2022-07-18T13:41:30;28.20;99.90
3912;DHT22;1971;51.778;10.330;2022-07-18T13:44:09;28.00;99.90
3912;DHT22;1971;51.778;10.330;2022-07-18T13:46:58;27.90;99.90
3912;DHT22;1971;51.778;10.330;2022-07-18T13:49:35;27.70;99.90
3912;DHT22;1971;51.778;10.330;2022-07-18T13:52:11;27.70;99.90
3912;DHT22;1971;51.778;10.330;2022-07-18T13:54:53;27.70;99.90
3912;DHT22;1971;51.778;10.330;2022-07-18T13:57:30;27.80;99.90
3912;DHT22;1971;51.778;10.330;2022-07-18T14:00:15;28.20;99.90
3912;DHT22;1971;51.778;10.330;2022-07-18T14:02:51;28.60;99.90
3912;DHT22;1971;51.778;10.330;2022-07-18T14:05:33;28.90;99.90
3912;DHT22;1971;51.778;10.330;2022-07-18T14:08:10;29.00;99.90
3912;DHT22;1971;51.778;10.330;2022-07-18T14:10:51;28.90;99.90
3912;DHT22;1971;51.778;10.330;2022-07-18T14:13:27;28.90;99.90
3912;DHT22;1971;51.778;10.330;2022-07-18T14:16:12;29.50;99.90
3912;DHT22;1971;51.778;10.330;2022-07-18T14:18:48;29.50;99.90
3912;DHT22;1971;51.778;10.330;2022-07-18T14:21:31;29.20;99.90
3912;DHT22;1971;51.778;10.330;2022-07-18T14:24:07;29.50;99.90
3912;DHT22;1971;51.778;10.330;2022-07-18T14:26:49;29.70;99.90
3912;DHT22;1971;51.778;10.330;2022-07-18T14:29:26;29.60;99.90
3912;DHT22;1971;51.778;10.330;2022-07-18T14:32:11;29.20;99.90
3912;DHT22;1971;51.778;10.330;2022-07-18T14:34:47;29.60;99.90
3912;DHT22;1971;51.778;10.330;2022-07-18T14:37:25;29.60;99.90
3912;DHT22;1971;51.778;10.330;2022-07-18T14:40:07;29.40;99.90
3912;DHT22;1971;51.778;10.330;2022-07-18T14:42:43;28.70;99.90
3912;DHT22;1971;51.778;10.330;2022-07-18T14:45:26;28.10;99.90
3912;DHT22;1971;51.778;10.330;2022-07-18T14:48:09;28.20;99.90
3912;DHT22;1971;51.778;10.330;2022-07-18T14:50:51;28.60;99.90
3912;DHT22;1971;51.778;10.330;2022-07-18T14:53:29;28.50;99.90
3912;DHT22;1971;51.778;10.330;2022-07-18T14:56:11;28.80;99.90
3912;DHT22;1971;51.778;10.330;2022-07-18T14:58:47;29.10;99.90
3912;DHT22;1971;51.778;10.330;2022-07-18T15:01:30;28.80;99.90
3912;DHT22;1971;51.778;10.330;2022-07-18T15:04:10;28.60;99.90
3912;DHT22;1971;51.778;10.330;2022-07-18T15:06:52;28.80;99.90
3912;DHT22;1971;51.778;10.330;2022-07-18T15:09:28;29.10;99.90
3912;DHT22;1971;51.778;10.330;2022-07-18T15:12:10;28.80;99.90
3912;DHT22;1971;51.778;10.330;2022-07-18T15:14:49;29.30;99.90
3912;DHT22;1971;51.778;10.330;2022-07-18T15:17:33;29.50;99.90
3912;DHT22;1971;51.778;10.330;2022-07-18T15:20:11;29.70;99.90
3912;DHT22;1971;51.778;10.330;2022-07-18T15:22:49;29.60;99.90
3912;DHT22;1971;51.778;10.330;2022-07-18T15:25:31;29.50;99.90
3912;DHT22;1971;51.778;10.330;2022-07-18T15:28:07;29.80;99.90
3912;DHT22;1971;51.778;10.330;2022-07-18T15:30:50;29.30;99.90
3912;DHT22;1971;51.778;10.330;2022-07-18T15:33:27;29.20;99.90
3912;DHT22;1971;51.778;10.330;2022-07-18T15:36:11;29.40;99.90
3912;DHT22;1971;51.778;10.330;2022-07-18T15:38:48;29.00;99.90
3912;DHT22;1971;51.778;10.330;2022-07-18T15:41:29;28.90;99.90
3912;DHT22;1971;51.778;10.330;2022-07-18T15:44:08;28.70;99.90
3912;DHT22;1971;51.778;10.330;2022-07-18T15:46:50;28.60;99.90
3912;DHT22;1971;51.778;10.330;2022-07-18T15:49:26;28.90;99.90
3912;DHT22;1971;51.778;10.330;2022-07-18T15:52:11;29.40;99.90
3912;DHT22;1971;51.778;10.330;2022-07-18T15:54:47;30.00;99.90
3912;DHT22;1971;51.778;10.330;2022-07-18T15:57:30;30.50;99.90
3912;DHT22;1971;51.778;10.330;2022-07-18T16:00:07;30.30;99.90
3912;DHT22;1971;51.778;10.330;2022-07-18T16:02:48;30.40;99.90
3912;DHT22;1971;51.778;10.330;2022-07-18T16:05:24;30.50;99.90
3912;DHT22;1971;51.778;10.330;2022-07-18T16:08:09;30.70;99.90
3912;DHT22;1971;51.778;10.330;2022-07-18T16:10:45;30.40;99.90
3912;DHT22;1971;51.778;10.330;2022-07-18T16:13:22;29.90;99.90
3912;DHT22;1971;51.778;10.330;2022-07-18T16:16:04;30.00;99.90
3912;DHT22;1971;51.778;10.330;2022-07-18T16:18:41;30.10;99.90
3912;DHT22;1971;51.778;10.330;2022-07-18T16:21:22;30.20;99.90
3912;DHT22;1971;51.778;10.330;2022-07-18T16:24:01;30.50;99.90
3912;DHT22;1971;51.778;10.330;2022-07-18T16:26:44;30.90;99.90
3912;DHT22;1971;51.778;10.330;2022-07-18T16:29:20;30.50;99.90
3912;DHT22;1971;51.778;10.330;2022-07-18T16:32:02;30.20;99.90
3912;DHT22;1971;51.778;10.330;2022-07-18T16:34:37;30.20;99.90
3912;DHT22;1971;51.778;10.330;2022-07-18T16:37:20;30.20;99.90
3912;DHT22;1971;51.778;10.330;2022-07-18T16:40:00;30.00;99.90
3912;DHT22;1971;51.778;10.330;2022-07-18T16:42:42;30.80;99.90
3912;DHT22;1971;51.778;10.330;2022-07-18T16:45:19;31.10;99.90
3912;DHT22;1971;51.778;10.330;2022-07-18T16:48:03;30.70;99.90
3912;DHT22;1971;51.778;10.330;2022-07-18T16:50:40;30.20;99.90
3912;DHT22;1971;51.778;10.330;2022-07-18T16:53:17;29.00;99.90
3912;DHT22;1971;51.778;10.330;2022-07-18T16:56:02;29.10;99.90
3912;DHT22;1971;51.778;10.330;2022-07-18T16:58:39;29.80;99.90
3912;DHT22;1971;51.778;10.330;2022-07-18T17:01:24;30.20;99.90
3912;DHT22;1971;51.778;10.330;2022-07-18T17:04:01;30.00;99.90
3912;DHT22;1971;51.778;10.330;2022-07-18T17:06:44;29.10;99.90
3912;DHT22;1971;51.778;10.330;2022-07-18T17:09:20;29.20;99.90
3912;DHT22;1971;51.778;10.330;2022-07-18T17:12:07;29.40;99.90
3912;DHT22;1971;51.778;10.330;2022-07-18T17:14:44;29.40;99.90
3912;DHT22;1971;51.778;10.330;2022-07-18T17:17:28;29.20;99.90
3912;DHT22;1971;51.778;10.330;2022-07-18T17:20:06;29.50;99.90
3912;DHT22;1971;51.778;10.330;2022-07-18T17:22:48;30.00;99.90
3912;DHT22;1971;51.778;10.330;2022-07-18T17:25:25;31.00;99.90